35°C Temp
'.PHP_EOL;
23°C Dewpoint
50% Humidity
Temperature
39 KM/H
24 MPH
21 KTS
180°
Due South

Wind
Partly Cloudy
Pressure 1011.52 (hPa)- 29.87 (in)
Visibility 9.9 (mi) - 16 (km)

Current Conditions
KTUL
Location 18(mi)
Metar:
KTUL 241853Z 18021G32KT 10SM FEW040 FEW250 35/23 A2987 RMK AO2 PK WND 17032/1853 SLP104 CB MOV NE T03500228
Thu 24th June 12:53 pm

Airport
  Metar Aviation API Data Provided by https://www.checkwx.com/ Icons created by weather34.com